Time;durP1;ratioP1;P1;durP2;ratioP2;P2;SDS_P1;SDS_P2;PMS_P1;PMS_P2;Temp;Humidity;BMP_temperature;BMP_pressure;BME280_temperature;BME280_humidity;BME280_pressure;Samples;Min_cycle;Max_cycle;Signal;HPM_P1;HPM_P2
2023/08/14 00:00:42;;;;;;;5.90;1.92;;;15.30;99.90;;;14.81;100.00;101081.56;4204095;28;20115;-75
2023/08/14 00:02:43;;;;;;;7.80;1.90;;;15.40;99.90;;;14.82;100.00;101093.00;4202742;28;20087;-75
2023/08/14 00:04:44;;;;;;;9.73;2.03;;;15.40;99.90;;;14.80;100.00;101090.56;4204124;28;20084;-75
2023/08/14 00:06:45;;;;;;;6.95;2.25;;;15.30;99.90;;;14.79;100.00;101098.66;4194681;28;20033;-74
2023/08/14 00:08:45;;;;;;;9.18;2.33;;;15.30;99.90;;;14.75;100.00;101082.28;4202475;28;20032;-74
2023/08/14 00:10:46;;;;;;;10.20;2.33;;;15.30;99.90;;;14.80;100.00;101079.09;4186064;28;20033;-74
2023/08/14 00:12:47;;;;;;;11.52;2.83;;;15.40;99.90;;;14.82;100.00;101067.28;4204017;28;20021;-74
2023/08/14 00:14:48;;;;;;;8.70;2.28;;;15.40;99.90;;;14.83;100.00;101058.31;4202796;28;20028;-75
2023/08/14 00:16:49;;;;;;;9.68;2.38;;;15.30;99.90;;;14.82;100.00;101039.91;4203823;28;20046;-75
2023/08/14 00:18:50;;;;;;;6.97;2.25;;;15.30;99.90;;;14.85;100.00;101056.31;4202776;28;20105;-75
2023/08/14 00:20:51;;;;;;;11.10;2.95;;;15.40;99.90;;;14.83;100.00;101058.31;4203977;28;20111;-75
2023/08/14 00:22:51;;;;;;;5.90;1.73;;;15.40;99.90;;;14.76;100.00;101048.56;4203861;28;20025;-75
2023/08/14 00:24:52;;;;;;;7.63;1.70;;;15.40;99.90;;;14.74;100.00;101058.53;4202745;28;20020;-74
2023/08/14 00:26:53;;;;;;;9.50;2.17;;;15.30;99.90;;;14.68;100.00;101038.84;4202438;28;20033;-74
2023/08/14 00:28:54;;;;;;;9.88;2.08;;;15.30;99.90;;;14.70;100.00;101058.06;4203685;28;20519;-74
2023/08/14 00:30:55;;;;;;;3.90;1.65;;;15.20;99.90;;;14.70;100.00;101059.88;4204183;28;20032;-74
2023/08/14 00:32:56;;;;;;;10.05;2.53;;;15.20;99.90;;;14.68;100.00;101048.63;4203763;28;20051;-75
2023/08/14 00:34:56;;;;;;;9.15;2.65;;;15.20;99.90;;;14.68;100.00;101035.34;4203628;28;20392;-74
2023/08/14 00:36:57;;;;;;;10.52;2.75;;;15.20;99.90;;;14.65;100.00;101030.38;4201782;28;20037;-75
2023/08/14 00:38:58;;;;;;;6.07;1.90;;;15.20;99.90;;;14.67;100.00;101036.34;4202995;28;20044;-75
2023/08/14 00:40:59;;;;;;;7.35;2.75;;;15.20;99.90;;;14.65;100.00;101043.66;4202230;28;20495;-74
2023/08/14 00:43:00;;;;;;;10.27;1.92;;;15.20;99.90;;;14.66;100.00;101040.84;4202400;28;20581;-74
2023/08/14 00:45:01;;;;;;;6.03;2.20;;;15.20;99.90;;;14.66;100.00;101043.50;4202119;28;20033;-74
2023/08/14 00:47:02;;;;;;;9.85;2.58;;;15.20;99.90;;;14.63;100.00;101040.38;4202316;28;20458;-74
2023/08/14 00:49:03;;;;;;;15.80;2.55;;;15.20;99.90;;;14.66;100.00;101030.22;4202160;28;20024;-74
2023/08/14 00:51:04;;;;;;;8.07;1.95;;;15.20;99.90;;;14.66;100.00;101032.06;4202171;28;20031;-75
2023/08/14 00:53:05;;;;;;;7.68;2.00;;;15.20;99.90;;;14.67;100.00;101042.47;4201479;28;20082;-74
2023/08/14 00:55:10;;;;;;;7.82;2.47;;;15.20;99.90;;;14.68;100.00;101049.47;4201984;28;20028;-75
2023/08/14 00:57:11;;;;;;;9.52;2.88;;;15.30;99.90;;;14.72;100.00;101049.94;4202222;28;20039;-74
2023/08/14 00:59:12;;;;;;;7.68;2.33;;;15.20;99.90;;;14.78;100.00;101051.88;4203301;28;20028;-74
2023/08/14 01:01:13;;;;;;;9.73;2.58;;;15.30;99.90;;;14.83;100.00;101044.22;4203109;28;20518;-75
2023/08/14 01:03:14;;;;;;;10.48;2.38;;;15.30;99.90;;;14.86;100.00;101046.53;4185375;28;20037;-74
2023/08/14 01:05:15;;;;;;;5.15;1.95;;;15.40;99.90;;;14.85;100.00;101024.44;4201582;28;20028;-75
2023/08/14 01:07:16;;;;;;;13.35;3.50;;;15.40;99.90;;;14.89;100.00;101027.56;4197476;28;20502;-75
2023/08/14 01:09:17;;;;;;;4.90;1.90;;;15.40;99.90;;;14.85;100.00;101028.91;4201456;28;20024;-74
2023/08/14 01:11:43;;;;;;;9.65;2.40;;;15.40;99.90;;;14.86;100.00;101026.09;4202097;28;20044;-74
2023/08/14 01:14:07;;;;;;;7.60;2.00;;;15.40;99.90;;;14.83;100.00;101038.91;4203249;28;20028;-75
2023/08/14 01:16:14;;;;;;;6.32;2.20;;;15.40;99.90;;;14.79;100.00;101032.28;4202996;28;20511;-75
2023/08/14 01:18:18;;;;;;;7.18;2.17;;;15.30;99.90;;;14.76;100.00;101028.16;4201829;28;20031;-74
2023/08/14 01:20:21;;;;;;;8.88;2.03;;;15.30;99.90;;;14.72;100.00;101023.38;4202046;28;20025;-75
2023/08/14 01:23:14;;;;;;;7.75;2.42;;;15.30;99.90;;;14.66;100.00;101018.78;4201682;28;20033;-75
2023/08/14 01:25:37;;;;;;;7.72;2.13;;;15.20;99.90;;;14.60;100.00;101016.81;4202555;28;20090;-74
2023/08/14 01:27:38;;;;;;;4.63;2.20;;;15.20;99.90;;;14.57;100.00;101020.66;4202856;28;20031;-74
2023/08/14 01:29:39;;;;;;;4.40;1.52;;;15.10;99.90;;;14.55;100.00;101017.31;4202187;28;20056;-75
2023/08/14 01:31:40;;;;;;;7.90;2.17;;;15.10;99.90;;;14.53;100.00;101010.53;4201713;28;20020;-75
2023/08/14 01:33:40;;;;;;;13.00;3.00;;;15.10;99.90;;;14.58;100.00;101009.00;4202728;28;20032;-74
2023/08/14 01:35:54;;;;;;;9.27;2.13;;;15.20;99.90;;;14.61;100.00;101003.34;4201629;28;20060;-75
2023/08/14 01:38:04;;;;;;;7.33;2.23;;;15.10;99.90;;;14.55;100.00;100980.16;4201526;28;20084;-74
2023/08/14 01:40:19;;;;;;;5.38;2.00;;;15.10;99.90;;;14.53;100.00;100986.66;4200980;28;20028;-74
2023/08/14 01:42:33;;;;;;;7.50;2.30;;;15.10;99.90;;;14.47;100.00;100977.56;4201405;28;20115;-75
2023/08/14 01:44:38;;;;;;;5.38;1.70;;;15.10;99.90;;;14.40;100.00;100977.44;4202552;28;20035;-75
2023/08/14 01:46:42;;;;;;;5.32;1.50;;;15.00;99.90;;;14.38;100.00;100982.09;4202372;28;20102;-74
2023/08/14 01:48:46;;;;;;;11.70;2.75;;;15.00;99.90;;;14.33;100.00;100976.50;4202578;28;20051;-74
2023/08/14 01:50:49;;;;;;;7.15;1.95;;;14.90;99.90;;;14.27;100.00;100973.69;4201263;28;20392;-74
2023/08/14 01:52:50;;;;;;;4.60;2.50;;;14.90;99.90;;;14.23;100.00;100975.03;4201294;28;20028;-75
2023/08/14 01:54:51;;;;;;;8.50;2.83;;;14.80;99.90;;;14.17;100.00;100965.94;4201036;28;20376;-74
2023/08/14 01:56:52;;;;;;;8.88;2.55;;;14.80;99.90;;;14.14;100.00;100963.63;4201255;28;20407;-75
2023/08/14 01:58:52;;;;;;;8.18;2.33;;;14.70;99.90;;;14.17;100.00;100971.25;4202253;28;20029;-75
2023/08/14 02:00:53;;;;;;;7.75;2.30;;;14.70;99.90;;;14.16;100.00;100963.44;4202143;28;20033;-74
2023/08/14 02:02:54;;;;;;;12.05;2.60;;;14.70;99.90;;;14.15;100.00;100964.47;4202456;28;20028;-74
2023/08/14 02:04:55;;;;;;;7.55;2.10;;;14.70;99.90;;;14.15;100.00;100961.81;4201413;28;20025;-74
2023/08/14 02:06:56;;;;;;;6.30;1.85;;;14.70;99.90;;;14.11;100.00;100958.66;4202079;28;20032;-74
2023/08/14 02:08:56;;;;;;;4.82;2.03;;;14.70;99.90;;;14.15;100.00;100969.75;4201767;28;20024;-74
2023/08/14 02:10:57;;;;;;;5.50;1.70;;;14.70;99.90;;;14.10;100.00;100970.25;4202207;28;20025;-74
2023/08/14 02:12:58;;;;;;;7.43;2.20;;;14.70;99.90;;;14.06;100.00;100955.72;4200872;28;20028;-74
2023/08/14 02:14:59;;;;;;;5.25;2.10;;;14.60;99.90;;;14.03;100.00;100956.06;4200867;28;20118;-75
2023/08/14 02:17:00;;;;;;;6.15;2.35;;;14.60;99.90;;;14.05;100.00;100969.97;4201963;28;20545;-74
2023/08/14 02:19:01;;;;;;;7.80;2.00;;;14.60;99.90;;;14.04;100.00;100970.94;4200972;28;20028;-74
2023/08/14 02:21:01;;;;;;;6.88;1.90;;;14.60;99.90;;;14.06;100.00;100968.16;4200850;28;20542;-74
2023/08/14 02:23:03;;;;;;;6.32;2.97;;;14.60;99.90;;;14.03;100.00;100968.50;4200695;28;20435;-75
2023/08/14 02:25:04;;;;;;;7.72;1.80;;;14.60;99.90;;;14.02;100.00;100969.47;4201753;28;20555;-74
2023/08/14 02:27:05;;;;;;;4.85;1.98;;;14.60;99.90;;;14.00;100.00;100964.38;4200608;28;20571;-75
2023/08/14 02:29:06;;;;;;;9.65;2.00;;;14.60;99.90;;;13.97;100.00;100967.34;4183918;28;20037;-75
2023/08/14 02:31:08;;;;;;;7.22;1.85;;;14.50;99.90;;;13.94;100.00;100975.66;4201945;28;20031;-75
2023/08/14 02:33:10;;;;;;;6.85;2.13;;;14.50;99.90;;;13.89;100.00;100967.38;4200371;28;20031;-74
2023/08/14 02:35:10;;;;;;;7.20;1.77;;;14.50;99.90;;;13.91;100.00;100970.69;4200139;28;20094;-75
2023/08/14 02:37:13;;;;;;;6.95;1.90;;;14.50;99.90;;;13.89;100.00;100956.75;4201923;28;20037;-75
2023/08/14 02:39:14;;;;;;;6.80;2.33;;;14.50;99.90;;;13.89;100.00;100955.97;4201574;28;20028;-74
2023/08/14 02:41:15;;;;;;;6.82;2.28;;;14.50;99.90;;;13.92;100.00;100960.94;4200551;28;20377;-74
2023/08/14 02:43:16;;;;;;;4.90;1.45;;;14.50;99.90;;;13.88;100.00;100955.13;4201730;28;20017;-74
2023/08/14 02:45:17;;;;;;;8.07;2.20;;;14.50;99.90;;;13.85;100.00;100952.81;4183768;28;20076;-75
2023/08/14 02:47:18;;;;;;;5.90;1.92;;;14.50;99.90;;;13.81;100.00;100954.97;4194308;28;20032;-74
2023/08/14 02:49:18;;;;;;;4.65;1.52;;;14.40;99.90;;;13.77;100.00;100942.22;4201916;28;20070;-74
2023/08/14 02:51:19;;;;;;;6.47;2.05;;;14.40;99.90;;;13.71;100.00;100937.59;4200526;28;20028;-74
2023/08/14 02:53:20;;;;;;;8.15;2.13;;;14.30;99.90;;;13.68;100.00;100937.94;4201592;28;20025;-75
2023/08/14 02:55:21;;;;;;;7.82;1.77;;;14.30;99.90;;;13.64;100.00;100940.13;4200570;28;20384;-75
2023/08/14 02:57:22;;;;;;;6.60;2.15;;;14.20;99.90;;;13.60;100.00;100930.03;4201611;28;20024;-74
2023/08/14 02:59:23;;;;;;;4.10;1.38;;;14.20;99.90;;;13.55;100.00;100932.38;4201664;28;20392;-74
2023/08/14 03:01:23;;;;;;;5.55;1.75;;;14.20;99.90;;;13.52;100.00;100928.25;4200669;28;20025;-74
2023/08/14 03:03:24;;;;;;;4.72;1.63;;;14.10;99.90;;;13.52;100.00;100930.06;4201652;28;20029;-74
2023/08/14 03:05:25;;;;;;;5.22;1.98;;;14.10;99.90;;;13.50;100.00;100929.44;4201712;28;20021;-74
2023/08/14 03:07:26;;;;;;;10.15;2.70;;;14.10;99.90;;;13.56;100.00;100926.09;4200222;28;20025;-74
2023/08/14 03:09:27;;;;;;;5.90;2.15;;;14.10;99.90;;;13.55;100.00;100922.59;4200389;28;20024;-75
2023/08/14 03:11:28;;;;;;;6.80;2.13;;;14.10;99.90;;;13.53;100.00;100911.34;4200456;28;20025;-74
2023/08/14 03:13:29;;;;;;;4.80;1.75;;;14.10;99.90;;;13.58;100.00;100916.13;4200521;28;20024;-75
2023/08/14 03:15:30;;;;;;;4.50;1.67;;;14.20;99.90;;;13.54;100.00;100907.69;4201531;28;20047;-75
2023/08/14 03:17:31;;;;;;;7.78;2.33;;;14.20;99.90;;;13.55;100.00;100905.88;4203710;28;20032;-74
2023/08/14 03:19:31;;;;;;;6.38;2.05;;;14.10;99.90;;;13.54;100.00;100910.34;4203686;28;20024;-74
2023/08/14 03:21:32;;;;;;;5.68;1.92;;;14.10;99.90;;;13.53;100.00;100903.38;4204824;28;20480;-74
2023/08/14 03:23:34;;;;;;;6.75;2.00;;;14.10;99.90;;;13.53;100.00;100903.38;4203661;28;20025;-74
2023/08/14 03:25:35;;;;;;;4.32;2.33;;;14.10;99.90;;;13.48;100.00;100904.91;4204252;28;20468;-74
2023/08/14 03:27:36;;;;;;;8.38;2.60;;;14.10;99.90;;;13.48;100.00;100900.44;4186964;28;20075;-74
2023/08/14 03:29:37;;;;;;;6.93;2.20;;;14.10;99.90;;;13.49;100.00;100901.25;4196401;28;20075;-74
2023/08/14 03:31:38;;;;;;;5.57;2.15;;;14.10;99.90;;;13.47;100.00;100904.06;4203354;28;20028;-74
2023/08/14 03:33:39;;;;;;;5.65;2.15;;;14.10;99.90;;;13.44;100.00;100908.91;4186900;28;20029;-74
2023/08/14 03:35:40;;;;;;;5.25;2.10;;;14.10;99.90;;;13.39;100.00;100898.78;4194764;28;20519;-75
2023/08/14 03:37:41;;;;;;;5.70;2.30;;;14.00;99.90;;;13.39;100.00;100895.31;4204583;28;20032;-74
2023/08/14 03:39:42;;;;;;;4.05;1.80;;;14.00;99.90;;;13.42;100.00;100897.63;4169965;28;20030;-74
2023/08/14 03:41:44;;;;;;;4.60;1.70;;;14.00;99.90;;;13.41;100.00;100906.59;4203289;28;20036;-75
2023/08/14 03:43:45;;;;;;;4.22;1.88;;;14.00;99.90;;;13.38;100.00;100898.97;4203281;28;20012;-75
2023/08/14 03:45:46;;;;;;;6.35;2.30;;;14.00;99.90;;;13.36;100.00;100906.25;4204535;28;20560;-74
2023/08/14 03:47:47;;;;;;;4.22;1.88;;;14.00;99.90;;;13.36;100.00;100906.25;4203236;28;20082;-75
2023/08/14 03:49:48;;;;;;;4.05;1.60;;;14.00;99.90;;;13.29;100.00;100896.34;4202935;28;20408;-74
2023/08/14 03:51:49;;;;;;;5.70;2.20;;;13.90;99.90;;;13.38;100.00;100905.09;4204359;28;20048;-75
2023/08/14 03:53:50;;;;;;;6.45;2.50;;;14.00;99.90;;;13.39;100.00;100900.63;4203147;28;20487;-74
2023/08/14 03:55:50;;;;;;;8.05;2.42;;;14.00;99.90;;;13.39;100.00;100896.16;4204174;28;20071;-75
2023/08/14 03:57:51;;;;;;;4.15;2.05;;;14.00;99.90;;;13.43;100.00;100891.34;4186276;28;20496;-74
2023/08/14 03:59:52;;;;;;;5.93;2.42;;;14.00;99.90;;;13.41;100.00;100888.84;4190967;28;20021;-74
2023/08/14 04:01:53;;;;;;;6.35;2.03;;;14.00;99.90;;;13.42;100.00;100887.84;4202834;28;20075;-75
2023/08/14 04:03:54;;;;;;;4.70;1.45;;;14.00;99.90;;;13.43;100.00;100889.53;4204108;28;20024;-75
2023/08/14 04:05:58;;;;;;;6.32;2.55;;;14.00;99.90;;;13.43;100.00;100886.03;4203234;28;20024;-75
2023/08/14 04:07:59;;;;;;;4.88;1.65;;;14.00;99.90;;;13.40;100.00;100889.88;4190923;28;20031;-75
2023/08/14 04:10:00;;;;;;;3.88;2.03;;;14.00;99.90;;;13.38;100.00;100883.88;4202871;28;20044;-75
2023/08/14 04:12:01;;;;;;;4.68;1.65;;;14.00;99.90;;;13.39;100.00;100879.41;4202859;28;20032;-74
2023/08/14 04:14:02;;;;;;;3.78;1.42;;;14.00;99.90;;;13.36;100.00;100879.75;4202585;28;20028;-74
2023/08/14 04:16:04;;;;;;;4.07;1.45;;;14.00;99.90;;;13.39;100.00;100879.41;4203068;28;20016;-74
2023/08/14 04:18:05;;;;;;;5.60;1.80;;;14.00;99.90;;;13.35;100.00;100884.22;4202755;28;20028;-75
2023/08/14 04:20:06;;;;;;;4.20;1.65;;;14.00;99.90;;;13.37;100.00;100892.03;4202705;28;20029;-74
2023/08/14 04:22:07;;;;;;;7.53;1.75;;;14.00;99.90;;;13.34;100.00;100895.84;4202669;28;20059;-75
2023/08/14 04:24:09;;;;;;;3.53;1.45;;;14.00;99.90;;;13.31;100.00;100896.19;4203750;28;20492;-75
2023/08/14 04:26:10;;;;;;;5.40;1.88;;;13.90;99.90;;;13.30;100.00;100898.00;4202413;28;20025;-75
2023/08/14 04:28:11;;;;;;;3.95;2.00;;;13.90;99.90;;;13.32;100.00;100899.66;4202545;28;20039;-75
2023/08/14 04:30:12;;;;;;;4.75;1.35;;;13.90;99.90;;;13.25;100.00;100883.63;4203734;28;20032;-75
2023/08/14 04:32:13;;;;;;;6.35;1.80;;;13.90;99.90;;;13.28;100.00;100889.41;4202530;28;20025;-74
2023/08/14 04:34:14;;;;;;;8.13;2.25;;;13.90;99.90;;;13.26;100.00;100883.44;4202623;28;20399;-74
2023/08/14 04:36:15;;;;;;;5.97;2.00;;;13.90;99.90;;;13.25;100.00;100889.75;4201896;28;20037;-75
2023/08/14 04:38:16;;;;;;;4.47;1.80;;;13.90;99.90;;;13.19;100.00;100877.16;4203239;28;20025;-75
2023/08/14 04:40:17;;;;;;;5.60;1.90;;;13.80;99.90;;;13.20;100.00;100886.75;4203682;28;20031;-75
2023/08/14 04:42:17;;;;;;;3.03;1.40;;;13.80;99.90;;;13.16;100.00;100880.16;4202343;28;20034;-74
2023/08/14 04:44:18;;;;;;;3.75;1.70;;;13.80;99.90;;;13.16;100.00;100885.47;4202350;28;20035;-75
2023/08/14 04:46:37;;;;;;;6.47;1.65;;;13.80;99.90;;;13.18;100.00;100882.63;4202188;28;20499;-75
2023/08/14 04:48:38;;;;;;;7.18;2.00;;;13.80;99.90;;;13.15;100.00;100886.44;4203464;28;20454;-75
2023/08/14 04:50:39;;;;;;;4.03;2.50;;;13.80;99.90;;;13.14;100.00;100886.63;4203456;28;20093;-75
2023/08/14 04:52:40;;;;;;;6.80;1.90;;;13.80;99.90;;;13.04;100.00;100870.88;4202332;28;20024;-75
2023/08/14 04:54:40;;;;;;;5.82;1.90;;;13.80;99.90;;;13.10;100.00;100877.34;4203077;28;20040;-74
2023/08/14 04:56:41;;;;;;;6.30;2.08;;;13.70;99.90;;;13.12;100.00;100883.31;4203314;28;20434;-75
2023/08/14 04:58:44;;;;;;;6.05;2.10;;;13.70;99.90;;;13.05;100.00;100877.81;4203292;28;20105;-75
2023/08/14 05:00:45;;;;;;;5.15;1.55;;;13.70;99.90;;;13.08;100.00;100893.41;4202069;28;20071;-75
2023/08/14 05:02:46;;;;;;;4.30;1.98;;;13.70;99.90;;;13.06;100.00;100891.88;4203105;28;20033;-75
2023/08/14 05:04:47;;;;;;;5.22;2.42;;;13.70;99.90;;;13.08;100.00;100898.69;4202279;28;20020;-74
2023/08/14 05:06:48;;;;;;;10.23;2.30;;;13.70;99.90;;;13.07;100.00;100891.72;4203131;28;20055;-74
2023/08/14 05:08:49;;;;;;;4.95;2.25;;;13.70;99.90;;;13.10;100.00;100894.06;4201554;28;20028;-74
2023/08/14 05:10:51;;;;;;;6.35;2.05;;;13.70;99.90;;;13.10;100.00;100894.06;4201687;28;20032;-74
2023/08/14 05:12:52;;;;;;;6.43;2.10;;;13.70;99.90;;;13.13;100.00;100882.31;4201917;28;20023;-74
2023/08/14 05:14:53;;;;;;;5.65;2.35;;;13.80;99.90;;;13.21;100.00;100893.72;4201875;28;20028;-74
2023/08/14 05:16:54;;;;;;;6.28;2.20;;;13.80;99.90;;;13.18;100.00;100893.22;4194827;28;20033;-74
2023/08/14 05:18:55;;;;;;;6.57;1.83;;;13.80;99.90;;;13.18;100.00;100894.06;4200352;28;20508;-75
2023/08/14 05:20:56;;;;;;;5.18;2.90;;;13.80;99.90;;;13.23;100.00;100894.38;4203080;28;20058;-74
2023/08/14 05:22:57;;;;;;;7.40;2.47;;;13.80;99.90;;;13.24;100.00;100893.38;4202918;28;20036;-74
2023/08/14 05:24:58;;;;;;;8.10;2.65;;;13.90;99.90;;;13.30;100.00;100900.66;4184811;28;20488;-75
2023/08/14 05:26:58;;;;;;;10.45;3.03;;;13.90;99.90;;;13.36;100.00;100893.00;4200976;28;20048;-74
2023/08/14 05:29:00;;;;;;;4.95;2.15;;;13.90;99.90;;;13.41;100.00;100893.34;4201578;28;20043;-74
2023/08/14 05:31:00;;;;;;;12.30;2.75;;;14.00;99.90;;;13.46;100.00;100901.59;4201503;28;20024;-74
2023/08/14 05:33:02;;;;;;;12.77;3.33;;;14.00;99.90;;;13.48;100.00;100895.13;4202366;28;20464;-74
2023/08/14 05:35:04;;;;;;;11.00;3.90;;;14.10;99.90;;;13.54;100.00;100893.59;4201810;28;20043;-75
2023/08/14 05:37:05;;;;;;;7.53;3.08;;;14.10;99.90;;;13.59;100.00;100886.00;4202646;28;20094;-74
2023/08/14 05:39:08;;;;;;;6.43;2.38;;;14.20;99.90;;;13.72;100.00;100888.91;4201143;28;20111;-74
2023/08/14 05:41:09;;;;;;;9.52;3.40;;;14.30;99.90;;;13.79;100.00;100889.88;4201254;28;20438;-74
2023/08/14 05:43:12;;;;;;;8.15;3.60;;;14.30;99.90;;;13.96;100.00;100890.59;4201230;28;20036;-74
2023/08/14 05:45:13;;;;;;;6.75;2.92;;;14.40;99.90;;;14.04;100.00;100880.78;4202564;28;20059;-74
2023/08/14 05:47:14;;;;;;;10.23;2.90;;;14.50;99.90;;;14.13;100.00;100878.88;4201207;28;20115;-75
2023/08/14 05:49:15;;;;;;;7.68;3.42;;;14.60;99.90;;;14.22;100.00;100886.63;4201175;28;20546;-75
2023/08/14 05:51:16;;;;;;;10.98;3.38;;;14.70;99.90;;;14.26;100.00;100872.00;4184488;28;20056;-74
2023/08/14 05:53:17;;;;;;;11.02;3.35;;;14.80;99.90;;;14.38;100.00;100873.28;4201076;28;20020;-75
2023/08/14 05:55:18;;;;;;;8.05;3.40;;;14.80;99.90;;;14.45;100.00;100872.59;4202428;28;20438;-74
2023/08/14 05:57:18;;;;;;;8.20;3.22;;;14.90;99.90;;;14.47;100.00;100876.69;4192408;28;20017;-74
2023/08/14 05:59:19;;;;;;;8.55;3.10;;;15.00;99.90;;;14.51;100.00;100879.84;4199691;28;20032;-75
2023/08/14 06:01:20;;;;;;;10.00;2.85;;;15.00;99.90;;;14.56;100.00;100880.13;4201552;28;20035;-74
2023/08/14 06:03:21;;;;;;;9.70;3.80;;;15.00;99.90;;;14.57;100.00;100876.47;4202654;28;20032;-75
2023/08/14 06:05:22;;;;;;;6.82;2.90;;;15.10;99.90;;;14.56;100.00;100864.19;4202233;28;20028;-75
2023/08/14 06:07:23;;;;;;;4.40;2.35;;;15.10;99.90;;;14.64;100.00;100872.06;4200893;28;20067;-75
2023/08/14 06:09:25;;;;;;;5.57;2.42;;;15.20;99.90;;;14.63;100.00;100868.63;4201776;28;20017;-74
2023/08/14 06:11:25;;;;;;;7.85;2.38;;;15.20;99.90;;;14.69;100.00;100869.72;4202247;28;20040;-75
2023/08/14 06:13:26;;;;;;;8.63;2.40;;;15.20;99.90;;;14.73;100.00;100874.47;4202305;28;20021;-75
2023/08/14 06:15:27;;;;;;;4.40;1.90;;;15.30;99.90;;;14.76;100.00;100870.63;4201005;28;20021;-75
2023/08/14 06:17:28;;;;;;;5.30;2.25;;;15.30;99.90;;;14.81;100.00;100873.59;4201652;28;20016;-75
2023/08/14 06:19:29;;;;;;;7.25;3.28;;;15.30;99.90;;;14.88;100.00;100871.84;4202264;28;20027;-75
2023/08/14 06:21:30;;;;;;;5.57;2.58;;;15.40;99.90;;;14.92;100.00;100870.50;4200993;28;20016;-74
2023/08/14 06:23:31;;;;;;;8.50;2.78;;;15.50;99.90;;;15.01;100.00;100880.03;4201807;28;20043;-74
2023/08/14 06:25:33;;;;;;;7.93;3.00;;;15.60;99.90;;;15.00;100.00;100861.63;4200603;28;20420;-75
2023/08/14 06:27:34;;;;;;;7.05;3.10;;;15.60;99.90;;;15.19;100.00;100882.34;4202034;28;20088;-75
2023/08/14 06:29:35;;;;;;;7.78;2.67;;;15.80;99.90;;;15.30;100.00;100874.75;4202061;28;20068;-75
2023/08/14 06:31:36;;;;;;;7.10;2.65;;;15.80;99.90;;;15.50;100.00;100870.53;4200823;28;20023;-75
2023/08/14 06:33:37;;;;;;;7.65;2.40;;;16.00;99.90;;;15.71;100.00;100872.44;4201739;28;20033;-75
2023/08/14 06:35:38;;;;;;;8.43;3.95;;;16.30;99.90;;;16.03;100.00;100881.84;4200657;28;20044;-75
2023/08/14 06:37:39;;;;;;;11.75;3.28;;;16.50;99.90;;;16.30;100.00;100881.09;4201975;28;20024;-75
2023/08/14 06:39:40;;;;;;;10.25;3.15;;;16.70;99.90;;;16.52;100.00;100880.06;4201580;28;20023;-74
2023/08/14 06:41:40;;;;;;;9.85;2.83;;;17.00;99.90;;;16.81;100.00;100881.81;4200517;28;20033;-75
2023/08/14 06:43:41;;;;;;;6.88;2.60;;;17.20;99.90;;;17.05;100.00;100891.22;4201951;28;20078;-74
2023/08/14 06:45:42;;;;;;;9.35;2.35;;;17.40;99.90;;;17.14;100.00;100884.72;4200178;28;20035;-74
2023/08/14 06:47:45;;;;;;;6.97;2.72;;;17.60;99.90;;;17.26;100.00;100885.81;4200534;28;20369;-75
2023/08/14 06:49:46;;;;;;;7.35;2.80;;;17.70;99.90;;;17.31;100.00;100885.22;4200647;28;20388;-75
2023/08/14 06:51:46;;;;;;;5.47;2.03;;;17.80;99.90;;;17.38;100.00;100889.56;4201292;28;20031;-74
2023/08/14 06:53:47;;;;;;;5.45;2.25;;;17.80;99.90;;;17.46;100.00;100891.25;4200484;28;20020;-75
2023/08/14 06:55:48;;;;;;;8.55;2.90;;;17.90;99.90;;;17.54;100.00;100899.09;4200409;28;20029;-75
2023/08/14 06:57:49;;;;;;;8.93;3.58;;;18.00;99.90;;;17.60;100.00;100898.31;4201517;28;20484;-75
2023/08/14 06:59:50;;;;;;;9.52;2.60;;;18.10;99.90;;;17.75;100.00;100899.00;4200756;28;20078;-74
2023/08/14 07:01:51;;;;;;;7.13;3.00;;;18.20;99.90;;;17.85;100.00;100895.97;4200644;28;20039;-75
2023/08/14 07:03:51;;;;;;;8.45;2.95;;;18.30;99.90;;;18.03;100.00;100897.09;4201636;28;20036;-75
2023/08/14 07:05:52;;;;;;;6.28;3.45;;;18.40;99.90;;;18.17;100.00;100901.44;4200336;28;20047;-75
2023/08/14 07:07:53;;;;;;;6.40;2.22;;;18.50;99.90;;;18.19;100.00;100910.03;4201521;28;20066;-74
2023/08/14 07:09:54;;;;;;;7.18;2.10;;;18.60;99.90;;;18.26;100.00;100904.72;4200311;28;20032;-74
2023/08/14 07:11:55;;;;;;;5.95;1.90;;;18.70;99.90;;;18.28;100.00;100913.34;4183725;28;20493;-75
2023/08/14 07:13:56;;;;;;;5.20;1.90;;;18.80;99.90;;;18.36;100.00;100905.19;4200353;28;20029;-75
2023/08/14 07:15:57;;;;;;;5.57;2.00;;;18.80;99.90;;;18.41;100.00;100908.06;4201671;28;20020;-75
2023/08/14 07:17:58;;;;;;;7.72;2.10;;;18.90;99.90;;;18.45;100.00;100909.31;4201475;28;20024;-75
2023/08/14 07:19:59;;;;;;;13.18;3.22;;;19.00;99.90;;;18.52;100.00;100910.16;4200751;28;20549;-74
2023/08/14 07:22:00;;;;;;;7.88;2.08;;;19.00;99.90;;;18.66;100.00;100919.00;4200183;28;20029;-74
2023/08/14 07:24:01;;;;;;;4.85;2.15;;;19.10;99.90;;;18.83;100.00;100909.56;4201404;28;20111;-75
2023/08/14 07:26:11;;;;;;;6.95;2.20;;;19.20;99.90;;;19.08;100.00;100905.25;4201485;28;20495;-75
2023/08/14 07:28:12;;;;;;;6.97;2.42;;;19.40;99.90;;;19.36;100.00;100918.34;4200239;28;20108;-75
2023/08/14 07:30:14;;;;;;;6.97;2.03;;;19.70;99.90;;;19.46;100.00;100907.25;4200774;28;20074;-75
2023/08/14 07:32:15;;;;;;;7.50;2.08;;;19.80;99.90;;;19.64;100.00;100918.94;4200322;28;20017;-75
2023/08/14 07:34:16;;;;;;;3.75;1.80;;;19.90;99.90;;;19.83;100.00;100919.91;4201467;28;20479;-75
2023/08/14 07:36:16;;;;;;;8.85;2.72;;;20.10;99.90;;;19.94;100.00;100911.22;4201231;28;20032;-75
2023/08/14 07:38:17;;;;;;;5.55;1.70;;;20.30;99.90;;;20.06;100.00;100928.25;4200994;28;20044;-75
2023/08/14 07:40:19;;;;;;;6.75;2.05;;;20.30;99.90;;;20.12;100.00;100919.34;4201327;28;20029;-75
2023/08/14 07:42:20;;;;;;;7.00;2.20;;;20.40;99.90;;;20.19;100.00;100919.34;4201397;28;20039;-75
2023/08/14 07:44:20;;;;;;;8.45;1.90;;;20.50;99.90;;;20.25;100.00;100923.84;4200095;28;20029;-75
2023/08/14 07:46:21;;;;;;;7.40;2.33;;;20.60;99.90;;;20.36;100.00;100925.84;4216883;28;20043;-75
2023/08/14 07:48:22;;;;;;;6.22;2.20;;;20.70;99.90;;;20.37;100.00;100922.13;4201094;28;20088;-75
2023/08/14 07:50:23;;;;;;;10.80;2.22;;;20.80;99.90;;;20.55;100.00;100919.53;4200340;28;20060;-75
2023/08/14 07:52:27;;;;;;;7.07;2.20;;;20.90;99.90;;;20.70;100.00;100927.25;4200103;28;20519;-75
2023/08/14 07:54:28;;;;;;;;;;;21.00;99.90;;;20.53;100.00;100908.22;4201492;28;20395;-75
2023/08/14 07:56:28;;;;;;;8.02;1.63;;;21.10;99.90;;;20.67;100.00;100917.78;4201522;28;19908;-75
2023/08/14 07:58:29;;;;;;;9.05;2.15;;;21.20;99.90;;;20.75;100.00;100906.00;4201119;28;20025;-75
2023/08/14 08:00:31;;;;;;;11.57;3.83;;;21.20;99.90;;;20.81;100.00;100903.28;4201384;28;20020;-75
2023/08/14 08:02:31;;;;;;;6.15;2.58;;;21.30;99.90;;;20.87;100.00;100906.94;4200071;28;20032;-75
2023/08/14 08:04:36;;;;;;;9.82;2.10;;;21.40;99.90;;;20.90;100.00;100911.84;4186362;28;20431;-75
2023/08/14 08:06:37;;;;;;;8.43;2.22;;;21.50;99.90;;;21.02;100.00;100909.28;4194779;28;20028;-75
2023/08/14 08:08:38;;;;;;;10.73;2.53;;;21.50;99.90;;;21.08;100.00;100911.06;4202554;28;20381;-75
2023/08/14 08:10:39;;;;;;;6.40;2.38;;;21.60;99.90;;;21.16;100.00;100910.81;4204066;28;20024;-75
2023/08/14 08:12:39;;;;;;;8.15;1.75;;;21.60;99.90;;;21.10;100.00;100917.88;4204075;28;20032;-75
2023/08/14 08:14:40;;;;;;;7.97;2.25;;;21.60;99.90;;;21.24;100.00;100907.84;4204039;28;20021;-75
2023/08/14 08:16:41;;;;;;;15.23;2.80;;;21.70;99.90;;;21.39;100.00;100917.19;4202711;28;20025;-75
2023/08/14 08:18:42;;;;;;;7.88;1.75;;;21.80;99.90;;;21.43;100.00;100921.06;4203742;28;20025;-75
2023/08/14 08:20:43;;;;;;;12.60;2.97;;;21.90;99.90;;;21.37;100.00;100913.09;4202759;28;20115;-75